sensor_id;sensor_type;location;lat;lon;timestamp;temperature;humidity
74171;DHT22;62526;50.948;6.590;2023-08-12T00:00:48;26.10;99.90
74171;DHT22;62526;50.948;6.590;2023-08-12T00:03:15;26.20;99.90
74171;DHT22;62526;50.948;6.590;2023-08-12T00:05:41;26.20;99.90
74171;DHT22;62526;50.948;6.590;2023-08-12T00:08:08;26.20;99.90
74171;DHT22;62526;50.948;6.590;2023-08-12T00:10:35;26.20;99.90
74171;DHT22;62526;50.948;6.590;2023-08-12T00:13:03;26.20;99.90
74171;DHT22;62526;50.948;6.590;2023-08-12T00:15:29;26.20;99.90
74171;DHT22;62526;50.948;6.590;2023-08-12T00:17:57;25.90;99.90
74171;DHT22;62526;50.948;6.590;2023-08-12T00:20:23;25.90;99.90
74171;DHT22;62526;50.948;6.590;2023-08-12T00:22:51;25.80;99.90
74171;DHT22;62526;50.948;6.590;2023-08-12T00:25:18;25.90;99.90
74171;DHT22;62526;50.948;6.590;2023-08-12T00:27:44;25.80;99.90
74171;DHT22;62526;50.948;6.590;2023-08-12T00:30:11;25.80;99.90
74171;DHT22;62526;50.948;6.590;2023-08-12T00:32:38;25.80;99.90
74171;DHT22;62526;50.948;6.590;2023-08-12T00:35:05;25.80;99.90
74171;DHT22;62526;50.948;6.590;2023-08-12T00:37:31;25.80;99.90
74171;DHT22;62526;50.948;6.590;2023-08-12T00:39:58;25.80;99.90
74171;DHT22;62526;50.948;6.590;2023-08-12T00:42:25;25.80;99.90
74171;DHT22;62526;50.948;6.590;2023-08-12T00:44:51;25.80;99.90
74171;DHT22;62526;50.948;6.590;2023-08-12T00:47:19;25.90;99.90
74171;DHT22;62526;50.948;6.590;2023-08-12T00:49:45;25.80;99.90
74171;DHT22;62526;50.948;6.590;2023-08-12T00:52:12;25.80;99.90
74171;DHT22;62526;50.948;6.590;2023-08-12T00:54:39;25.80;99.90
74171;DHT22;62526;50.948;6.590;2023-08-12T00:57:06;25.70;99.90
74171;DHT22;62526;50.948;6.590;2023-08-12T00:59:34;25.70;99.90
74171;DHT22;62526;50.948;6.590;2023-08-12T01:01:59;25.70;99.90
74171;DHT22;62526;50.948;6.590;2023-08-12T01:04:26;25.60;99.90
74171;DHT22;62526;50.948;6.590;2023-08-12T01:06:53;25.60;99.90
74171;DHT22;62526;50.948;6.590;2023-08-12T01:09:20;25.60;99.90
74171;DHT22;62526;50.948;6.590;2023-08-12T01:11:49;25.50;99.90
74171;DHT22;62526;50.948;6.590;2023-08-12T01:14:18;25.50;99.90
74171;DHT22;62526;50.948;6.590;2023-08-12T01:16:46;25.50;99.90
74171;DHT22;62526;50.948;6.590;2023-08-12T01:19:16;25.50;99.90
74171;DHT22;62526;50.948;6.590;2023-08-12T01:21:40;25.50;99.90
74171;DHT22;62526;50.948;6.590;2023-08-12T01:24:05;25.50;99.90
74171;DHT22;62526;50.948;6.590;2023-08-12T01:26:32;25.50;99.90
74171;DHT22;62526;50.948;6.590;2023-08-12T01:28:58;25.50;99.90
74171;DHT22;62526;50.948;6.590;2023-08-12T01:31:29;25.60;99.90
74171;DHT22;62526;50.948;6.590;2023-08-12T01:33:57;25.50;99.90
74171;DHT22;62526;50.948;6.590;2023-08-12T01:36:22;25.60;99.90
74171;DHT22;62526;50.948;6.590;2023-08-12T01:38:49;25.50;99.90
74171;DHT22;62526;50.948;6.590;2023-08-12T01:41:16;25.50;99.90
74171;DHT22;62526;50.948;6.590;2023-08-12T01:43:42;25.50;99.90
74171;DHT22;62526;50.948;6.590;2023-08-12T01:46:09;25.60;99.90
74171;DHT22;62526;50.948;6.590;2023-08-12T01:48:38;25.60;99.90
74171;DHT22;62526;50.948;6.590;2023-08-12T01:51:04;25.60;99.90
74171;DHT22;62526;50.948;6.590;2023-08-12T01:53:32;25.60;99.90
74171;DHT22;62526;50.948;6.590;2023-08-12T01:55:58;25.60;99.90
74171;DHT22;62526;50.948;6.590;2023-08-12T01:58:25;25.60;99.90
74171;DHT22;62526;50.948;6.590;2023-08-12T02:00:52;25.60;99.90
74171;DHT22;62526;50.948;6.590;2023-08-12T02:03:19;25.60;99.90
74171;DHT22;62526;50.948;6.590;2023-08-12T02:05:46;25.60;99.90
74171;DHT22;62526;50.948;6.590;2023-08-12T02:08:12;25.50;99.90
74171;DHT22;62526;50.948;6.590;2023-08-12T02:10:40;25.50;99.90
74171;DHT22;62526;50.948;6.590;2023-08-12T02:13:06;25.60;99.90
74171;DHT22;62526;50.948;6.590;2023-08-12T02:15:33;25.60;99.90
74171;DHT22;62526;50.948;6.590;2023-08-12T02:17:59;25.50;99.90
74171;DHT22;62526;50.948;6.590;2023-08-12T02:20:27;25.50;99.90
74171;DHT22;62526;50.948;6.590;2023-08-12T02:22:54;25.60;99.90
74171;DHT22;62526;50.948;6.590;2023-08-12T02:25:21;25.50;99.90
74171;DHT22;62526;50.948;6.590;2023-08-12T02:27:48;25.50;99.90
74171;DHT22;62526;50.948;6.590;2023-08-12T02:30:15;25.50;99.90
74171;DHT22;62526;50.948;6.590;2023-08-12T02:32:42;25.60;99.90
74171;DHT22;62526;50.948;6.590;2023-08-12T02:35:09;25.60;99.90
74171;DHT22;62526;50.948;6.590;2023-08-12T02:37:36;25.60;99.90
74171;DHT22;62526;50.948;6.590;2023-08-12T02:40:04;25.60;99.90
74171;DHT22;62526;50.948;6.590;2023-08-12T02:42:31;25.50;99.90
74171;DHT22;62526;50.948;6.590;2023-08-12T02:44:58;25.50;99.90
74171;DHT22;62526;50.948;6.590;2023-08-12T02:47:26;25.50;99.90
74171;DHT22;62526;50.948;6.590;2023-08-12T02:49:53;25.60;99.90
74171;DHT22;62526;50.948;6.590;2023-08-12T02:52:20;25.60;99.90
74171;DHT22;62526;50.948;6.590;2023-08-12T02:54:48;25.60;99.90
74171;DHT22;62526;50.948;6.590;2023-08-12T02:57:16;25.50;99.90
74171;DHT22;62526;50.948;6.590;2023-08-12T02:59:43;25.50;99.90
74171;DHT22;62526;50.948;6.590;2023-08-12T03:02:10;25.50;99.90
74171;DHT22;62526;50.948;6.590;2023-08-12T03:04:37;25.50;99.90
74171;DHT22;62526;50.948;6.590;2023-08-12T03:07:04;25.40;99.90
74171;DHT22;62526;50.948;6.590;2023-08-12T03:09:31;25.30;99.90
74171;DHT22;62526;50.948;6.590;2023-08-12T03:11:57;25.40;99.90
74171;DHT22;62526;50.948;6.590;2023-08-12T03:14:24;25.30;99.90
74171;DHT22;62526;50.948;6.590;2023-08-12T03:16:50;25.30;99.90
74171;DHT22;62526;50.948;6.590;2023-08-12T03:19:17;25.30;99.90
74171;DHT22;62526;50.948;6.590;2023-08-12T03:21:44;25.30;99.90
74171;DHT22;62526;50.948;6.590;2023-08-12T03:24:12;25.30;99.90
74171;DHT22;62526;50.948;6.590;2023-08-12T03:26:38;25.20;99.90
74171;DHT22;62526;50.948;6.590;2023-08-12T03:29:07;25.20;99.90
74171;DHT22;62526;50.948;6.590;2023-08-12T03:31:33;25.20;99.90
74171;DHT22;62526;50.948;6.590;2023-08-12T03:34:01;25.10;99.90
74171;DHT22;62526;50.948;6.590;2023-08-12T03:36:27;25.10;99.90
74171;DHT22;62526;50.948;6.590;2023-08-12T03:38:54;25.00;99.90
74171;DHT22;62526;50.948;6.590;2023-08-12T03:41:21;25.00;99.90
74171;DHT22;62526;50.948;6.590;2023-08-12T03:43:48;24.90;99.90
74171;DHT22;62526;50.948;6.590;2023-08-12T03:46:15;24.90;99.90
74171;DHT22;62526;50.948;6.590;2023-08-12T03:48:41;24.80;99.90
74171;DHT22;62526;50.948;6.590;2023-08-12T03:51:08;24.80;99.90
74171;DHT22;62526;50.948;6.590;2023-08-12T03:53:35;24.80;99.90
74171;DHT22;62526;50.948;6.590;2023-08-12T03:56:02;24.80;99.90
74171;DHT22;62526;50.948;6.590;2023-08-12T03:58:29;24.80;99.90
74171;DHT22;62526;50.948;6.590;2023-08-12T04:00:56;24.80;99.90
74171;DHT22;62526;50.948;6.590;2023-08-12T04:03:22;24.70;99.90
74171;DHT22;62526;50.948;6.590;2023-08-12T04:05:50;24.70;99.90
74171;DHT22;62526;50.948;6.590;2023-08-12T04:08:16;24.70;99.90
74171;DHT22;62526;50.948;6.590;2023-08-12T04:10:44;24.60;99.90
74171;DHT22;62526;50.948;6.590;2023-08-12T04:13:10;24.70;99.90
74171;DHT22;62526;50.948;6.590;2023-08-12T04:15:37;24.70;99.90
74171;DHT22;62526;50.948;6.590;2023-08-12T04:18:05;24.70;99.90
74171;DHT22;62526;50.948;6.590;2023-08-12T04:20:31;24.70;99.90
74171;DHT22;62526;50.948;6.590;2023-08-12T04:22:58;24.80;99.90
74171;DHT22;62526;50.948;6.590;2023-08-12T04:25:25;24.90;99.90
74171;DHT22;62526;50.948;6.590;2023-08-12T04:27:51;24.90;99.90
74171;DHT22;62526;50.948;6.590;2023-08-12T04:30:18;24.90;99.90
74171;DHT22;62526;50.948;6.590;2023-08-12T04:32:44;25.00;99.90
74171;DHT22;62526;50.948;6.590;2023-08-12T04:35:11;25.00;99.90
74171;DHT22;62526;50.948;6.590;2023-08-12T04:37:38;25.00;99.90
74171;DHT22;62526;50.948;6.590;2023-08-12T04:40:07;25.00;99.90
74171;DHT22;62526;50.948;6.590;2023-08-12T04:42:34;25.00;99.90
74171;DHT22;62526;50.948;6.590;2023-08-12T04:45:00;24.90;99.90
74171;DHT22;62526;50.948;6.590;2023-08-12T04:47:28;24.90;99.90
74171;DHT22;62526;50.948;6.590;2023-08-12T04:49:54;24.80;99.90
74171;DHT22;62526;50.948;6.590;2023-08-12T04:52:21;24.90;99.90
74171;DHT22;62526;50.948;6.590;2023-08-12T04:54:48;24.90;99.90
74171;DHT22;62526;50.948;6.590;2023-08-12T04:57:14;25.00;99.90
74171;DHT22;62526;50.948;6.590;2023-08-12T04:59:41;25.00;99.90
74171;DHT22;62526;50.948;6.590;2023-08-12T05:02:08;25.00;99.90
74171;DHT22;62526;50.948;6.590;2023-08-12T05:04:35;25.00;99.90
74171;DHT22;62526;50.948;6.590;2023-08-12T05:07:01;25.00;99.90
74171;DHT22;62526;50.948;6.590;2023-08-12T05:09:28;25.00;99.90
74171;DHT22;62526;50.948;6.590;2023-08-12T05:11:56;25.00;99.90
74171;DHT22;62526;50.948;6.590;2023-08-12T05:14:22;25.00;99.90
74171;DHT22;62526;50.948;6.590;2023-08-12T05:16:49;24.80;99.90
74171;DHT22;62526;50.948;6.590;2023-08-12T05:19:15;24.90;99.90
74171;DHT22;62526;50.948;6.590;2023-08-12T05:21:42;24.90;99.90
74171;DHT22;62526;50.948;6.590;2023-08-12T05:24:09;24.90;99.90
74171;DHT22;62526;50.948;6.590;2023-08-12T05:26:35;24.90;99.90
74171;DHT22;62526;50.948;6.590;2023-08-12T05:29:03;24.80;99.90
74171;DHT22;62526;50.948;6.590;2023-08-12T05:31:32;24.80;99.90
74171;DHT22;62526;50.948;6.590;2023-08-12T05:33:58;24.90;99.90
74171;DHT22;62526;50.948;6.590;2023-08-12T05:36:26;24.90;99.90
74171;DHT22;62526;50.948;6.590;2023-08-12T05:38:53;24.90;99.90
74171;DHT22;62526;50.948;6.590;2023-08-12T05:41:20;25.00;99.90
74171;DHT22;62526;50.948;6.590;2023-08-12T05:43:47;24.90;99.90
74171;DHT22;62526;50.948;6.590;2023-08-12T05:46:13;24.90;99.90
74171;DHT22;62526;50.948;6.590;2023-08-12T05:48:40;24.80;99.90
74171;DHT22;62526;50.948;6.590;2023-08-12T05:51:07;24.80;99.90
74171;DHT22;62526;50.948;6.590;2023-08-12T05:53:34;24.70;99.90
74171;DHT22;62526;50.948;6.590;2023-08-12T05:56:00;25.50;99.90
74171;DHT22;62526;50.948;6.590;2023-08-12T05:58:28;24.70;99.90
74171;DHT22;62526;50.948;6.590;2023-08-12T06:00:54;24.70;99.90
74171;DHT22;62526;50.948;6.590;2023-08-12T06:03:21;24.60;99.90
74171;DHT22;62526;50.948;6.590;2023-08-12T06:05:48;24.60;99.90
74171;DHT22;62526;50.948;6.590;2023-08-12T06:08:15;24.50;99.90
74171;DHT22;62526;50.948;6.590;2023-08-12T06:10:42;24.50;99.90
74171;DHT22;62526;50.948;6.590;2023-08-12T06:13:09;24.50;99.90
74171;DHT22;62526;50.948;6.590;2023-08-12T06:15:37;24.60;99.90
74171;DHT22;62526;50.948;6.590;2023-08-12T06:18:03;24.50;99.90
74171;DHT22;62526;50.948;6.590;2023-08-12T06:20:32;24.60;99.90
74171;DHT22;62526;50.948;6.590;2023-08-12T06:22:58;24.60;99.90
74171;DHT22;62526;50.948;6.590;2023-08-12T06:25:25;24.70;99.90
74171;DHT22;62526;50.948;6.590;2023-08-12T06:27:52;24.70;99.90
74171;DHT22;62526;50.948;6.590;2023-08-12T06:30:18;24.70;99.90
74171;DHT22;62526;50.948;6.590;2023-08-12T06:32:47;24.70;99.90
74171;DHT22;62526;50.948;6.590;2023-08-12T06:35:14;24.80;99.90
74171;DHT22;62526;50.948;6.590;2023-08-12T06:37:40;24.80;99.90
74171;DHT22;62526;50.948;6.590;2023-08-12T06:40:08;24.90;99.90
74171;DHT22;62526;50.948;6.590;2023-08-12T06:42:35;25.00;99.90
74171;DHT22;62526;50.948;6.590;2023-08-12T06:45:01;24.90;99.90
74171;DHT22;62526;50.948;6.590;2023-08-12T06:47:28;24.90;99.90
74171;DHT22;62526;50.948;6.590;2023-08-12T06:49:55;24.80;99.90
74171;DHT22;62526;50.948;6.590;2023-08-12T06:52:21;24.80;99.90
74171;DHT22;62526;50.948;6.590;2023-08-12T06:54:49;24.90;99.90
74171;DHT22;62526;50.948;6.590;2023-08-12T06:57:15;24.90;99.90
74171;DHT22;62526;50.948;6.590;2023-08-12T06:59:42;24.90;99.90
74171;DHT22;62526;50.948;6.590;2023-08-12T07:02:09;24.80;99.90
74171;DHT22;62526;50.948;6.590;2023-08-12T07:04:36;24.90;99.90
74171;DHT22;62526;50.948;6.590;2023-08-12T07:07:03;24.90;99.90
74171;DHT22;62526;50.948;6.590;2023-08-12T07:09:31;25.00;99.90
74171;DHT22;62526;50.948;6.590;2023-08-12T07:11:58;25.00;99.90
74171;DHT22;62526;50.948;6.590;2023-08-12T07:14:25;24.90;99.90
74171;DHT22;62526;50.948;6.590;2023-08-12T07:16:52;24.90;99.90
74171;DHT22;62526;50.948;6.590;2023-08-12T07:19:18;24.90;99.90
74171;DHT22;62526;50.948;6.590;2023-08-12T07:21:45;24.70;99.90
74171;DHT22;62526;50.948;6.590;2023-08-12T07:24:11;24.70;99.90
74171;DHT22;62526;50.948;6.590;2023-08-12T07:26:38;24.60;99.90
74171;DHT22;62526;50.948;6.590;2023-08-12T07:29:05;24.60;99.90
74171;DHT22;62526;50.948;6.590;2023-08-12T07:31:32;24.60;99.90
74171;DHT22;62526;50.948;6.590;2023-08-12T07:33:58;24.70;99.90
74171;DHT22;62526;50.948;6.590;2023-08-12T07:36:25;24.80;99.90
74171;DHT22;62526;50.948;6.590;2023-08-12T07:38:52;24.80;99.90
74171;DHT22;62526;50.948;6.590;2023-08-12T07:41:18;24.80;99.90
74171;DHT22;62526;50.948;6.590;2023-08-12T07:43:45;24.80;99.90
74171;DHT22;62526;50.948;6.590;2023-08-12T07:46:12;24.90;99.90
74171;DHT22;62526;50.948;6.590;2023-08-12T07:48:39;25.00;99.90
74171;DHT22;62526;50.948;6.590;2023-08-12T07:51:07;25.00;99.90
74171;DHT22;62526;50.948;6.590;2023-08-12T07:53:33;25.00;99.90
74171;DHT22;62526;50.948;6.590;2023-08-12T07:56:00;25.10;99.90
74171;DHT22;62526;50.948;6.590;2023-08-12T07:58:27;25.20;99.90
74171;DHT22;62526;50.948;6.590;2023-08-12T08:00:53;25.20;99.90
74171;DHT22;62526;50.948;6.590;2023-08-12T08:03:20;25.20;99.90
74171;DHT22;62526;50.948;6.590;2023-08-12T08:05:46;25.20;99.90
74171;DHT22;62526;50.948;6.590;2023-08-12T08:08:13;25.20;99.90
74171;DHT22;62526;50.948;6.590;2023-08-12T08:10:40;25.30;99.90
74171;DHT22;62526;50.948;6.590;2023-08-12T08:13:06;25.30;99.90
74171;DHT22;62526;50.948;6.590;2023-08-12T08:15:34;25.40;99.90
74171;DHT22;62526;50.948;6.590;2023-08-12T08:18:00;25.40;99.90
74171;DHT22;62526;50.948;6.590;2023-08-12T08:20:27;25.50;99.90
74171;DHT22;62526;50.948;6.590;2023-08-12T08:22:54;25.50;99.90
74171;DHT22;62526;50.948;6.590;2023-08-12T08:25:20;25.60;99.90
74171;DHT22;62526;50.948;6.590;2023-08-12T08:27:47;25.50;99.90
74171;DHT22;62526;50.948;6.590;2023-08-12T08:30:14;25.60;99.90
74171;DHT22;62526;50.948;6.590;2023-08-12T08:32:41;25.60;99.90
74171;DHT22;62526;50.948;6.590;2023-08-12T08:35:12;25.60;99.90
74171;DHT22;62526;50.948;6.590;2023-08-12T08:37:40;25.70;99.90
74171;DHT22;62526;50.948;6.590;2023-08-12T08:40:07;25.70;99.90
74171;DHT22;62526;50.948;6.590;2023-08-12T08:42:34;25.70;99.90
74171;DHT22;62526;50.948;6.590;2023-08-12T08:45:01;25.80;99.90
74171;DHT22;62526;50.948;6.590;2023-08-12T08:47:29;26.00;99.90
74171;DHT22;62526;50.948;6.590;2023-08-12T08:49:56;26.00;99.90
74171;DHT22;62526;50.948;6.590;2023-08-12T08:52:24;26.10;99.90
74171;DHT22;62526;50.948;6.590;2023-08-12T08:54:51;26.10;99.90
74171;DHT22;62526;50.948;6.590;2023-08-12T08:57:19;26.40;99.90
74171;DHT22;62526;50.948;6.590;2023-08-12T08:59:46;26.40;99.90
74171;DHT22;62526;50.948;6.590;2023-08-12T09:02:16;26.60;99.90
74171;DHT22;62526;50.948;6.590;2023-08-12T09:04:41;26.30;99.90
74171;DHT22;62526;50.948;6.590;2023-08-12T09:07:10;26.40;99.90
74171;DHT22;62526;50.948;6.590;2023-08-12T09:09:38;26.30;99.90
74171;DHT22;62526;50.948;6.590;2023-08-12T09:12:06;26.60;99.90
74171;DHT22;62526;50.948;6.590;2023-08-12T09:14:33;26.50;99.90
74171;DHT22;62526;50.948;6.590;2023-08-12T09:16:59;26.30;99.90
74171;DHT22;62526;50.948;6.590;2023-08-12T09:19:26;26.30;99.90
74171;DHT22;62526;50.948;6.590;2023-08-12T09:21:55;26.20;99.90
74171;DHT22;62526;50.948;6.590;2023-08-12T09:24:25;25.80;99.90
74171;DHT22;62526;50.948;6.590;2023-08-12T09:26:52;25.70;99.90
74171;DHT22;62526;50.948;6.590;2023-08-12T09:29:23;25.90;99.90
74171;DHT22;62526;50.948;6.590;2023-08-12T09:31:49;25.90;99.90
74171;DHT22;62526;50.948;6.590;2023-08-12T09:34:17;26.20;99.90
74171;DHT22;62526;50.948;6.590;2023-08-12T09:36:43;26.20;99.90
74171;DHT22;62526;50.948;6.590;2023-08-12T09:39:12;26.40;99.90
74171;DHT22;62526;50.948;6.590;2023-08-12T09:41:37;26.40;99.90
74171;DHT22;62526;50.948;6.590;2023-08-12T09:44:04;26.50;99.90
74171;DHT22;62526;50.948;6.590;2023-08-12T09:46:32;26.30;99.90
74171;DHT22;62526;50.948;6.590;2023-08-12T09:48:59;26.30;99.90
74171;DHT22;62526;50.948;6.590;2023-08-12T09:51:26;26.30;99.90
74171;DHT22;62526;50.948;6.590;2023-08-12T09:53:54;26.50;99.90
74171;DHT22;62526;50.948;6.590;2023-08-12T09:56:22;26.80;99.90
74171;DHT22;62526;50.948;6.590;2023-08-12T09:58:48;26.80;99.90
74171;DHT22;62526;50.948;6.590;2023-08-12T10:01:18;26.70;99.90
74171;DHT22;62526;50.948;6.590;2023-08-12T10:03:44;26.80;99.90
74171;DHT22;62526;50.948;6.590;2023-08-12T10:06:11;26.80;99.90
74171;DHT22;62526;50.948;6.590;2023-08-12T10:08:38;26.80;99.90
74171;DHT22;62526;50.948;6.590;2023-08-12T10:11:05;26.70;99.90
74171;DHT22;62526;50.948;6.590;2023-08-12T10:13:32;26.70;99.90
74171;DHT22;62526;50.948;6.590;2023-08-12T10:16:00;27.00;99.90
74171;DHT22;62526;50.948;6.590;2023-08-12T10:18:27;27.40;99.90
74171;DHT22;62526;50.948;6.590;2023-08-12T10:20:55;27.70;99.90
74171;DHT22;62526;50.948;6.590;2023-08-12T10:23:22;27.80;99.90
74171;DHT22;62526;50.948;6.590;2023-08-12T10:25:49;27.90;99.90
74171;DHT22;62526;50.948;6.590;2023-08-12T10:28:18;28.00;99.90
74171;DHT22;62526;50.948;6.590;2023-08-12T10:30:45;27.50;99.90
74171;DHT22;62526;50.948;6.590;2023-08-12T10:33:14;27.40;99.90
74171;DHT22;62526;50.948;6.590;2023-08-12T10:35:43;27.30;99.90
74171;DHT22;62526;50.948;6.590;2023-08-12T10:38:17;27.10;99.90
74171;DHT22;62526;50.948;6.590;2023-08-12T10:40:41;27.10;99.90
74171;DHT22;62526;50.948;6.590;2023-08-12T10:43:08;27.00;99.90
74171;DHT22;62526;50.948;6.590;2023-08-12T10:45:43;27.00;99.90
74171;DHT22;62526;50.948;6.590;2023-08-12T10:48:21;26.90;99.90
74171;DHT22;62526;50.948;6.590;2023-08-12T10:50:48;26.90;99.90
74171;DHT22;62526;50.948;6.590;2023-08-12T10:53:22;26.70;99.90
74171;DHT22;62526;50.948;6.590;2023-08-12T10:55:49;26.40;99.90
74171;DHT22;62526;50.948;6.590;2023-08-12T11:00:55;26.00;99.90
74171;DHT22;62526;50.948;6.590;2023-08-12T11:03:22;26.00;99.90
74171;DHT22;62526;50.948;6.590;2023-08-12T11:05:49;25.90;99.90
74171;DHT22;62526;50.948;6.590;2023-08-12T11:08:15;25.80;99.90
74171;DHT22;62526;50.948;6.590;2023-08-12T11:10:43;25.60;99.90
74171;DHT22;62526;50.948;6.590;2023-08-12T11:13:11;25.80;99.90
74171;DHT22;62526;50.948;6.590;2023-08-12T11:15:41;25.90;99.90
74171;DHT22;62526;50.948;6.590;2023-08-12T11:18:10;26.20;99.90
74171;DHT22;62526;50.948;6.590;2023-08-12T11:20:37;26.30;99.90
74171;DHT22;62526;50.948;6.590;2023-08-12T11:23:05;26.70;99.90
74171;DHT22;62526;50.948;6.590;2023-08-12T11:25:32;26.90;99.90
74171;DHT22;62526;50.948;6.590;2023-08-12T11:28:03;27.10;99.90
74171;DHT22;62526;50.948;6.590;2023-08-12T11:30:31;27.10;99.90
74171;DHT22;62526;50.948;6.590;2023-08-12T11:32:58;27.00;99.90
74171;DHT22;62526;50.948;6.590;2023-08-12T11:35:25;26.90;99.90
74171;DHT22;62526;50.948;6.590;2023-08-12T11:37:53;26.90;99.90
74171;DHT22;62526;50.948;6.590;2023-08-12T11:40:19;27.00;99.90
74171;DHT22;62526;50.948;6.590;2023-08-12T11:42:48;27.10;99.90
74171;DHT22;62526;50.948;6.590;2023-08-12T11:45:15;27.10;99.90
74171;DHT22;62526;50.948;6.590;2023-08-12T11:47:40;27.10;99.90
74171;DHT22;62526;50.948;6.590;2023-08-12T11:50:10;27.10;99.90
74171;DHT22;62526;50.948;6.590;2023-08-12T11:52:37;27.20;99.90
74171;DHT22;62526;50.948;6.590;2023-08-12T11:55:04;27.00;99.90
74171;DHT22;62526;50.948;6.590;2023-08-12T11:57:33;27.50;99.90
74171;DHT22;62526;50.948;6.590;2023-08-12T12:00:02;28.20;99.90
74171;DHT22;62526;50.948;6.590;2023-08-12T12:02:28;28.60;99.90
74171;DHT22;62526;50.948;6.590;2023-08-12T12:04:55;28.00;99.90
74171;DHT22;62526;50.948;6.590;2023-08-12T12:07:23;28.00;99.90
74171;DHT22;62526;50.948;6.590;2023-08-12T12:09:51;28.10;99.90
74171;DHT22;62526;50.948;6.590;2023-08-12T12:12:17;27.90;99.90
74171;DHT22;62526;50.948;6.590;2023-08-12T12:14:44;27.40;99.90
74171;DHT22;62526;50.948;6.590;2023-08-12T12:17:11;27.50;99.90
74171;DHT22;62526;50.948;6.590;2023-08-12T12:19:40;27.50;99.90
74171;DHT22;62526;50.948;6.590;2023-08-12T12:22:06;27.60;99.90
74171;DHT22;62526;50.948;6.590;2023-08-12T12:24:43;27.60;99.90
74171;DHT22;62526;50.948;6.590;2023-08-12T12:27:00;27.70;99.90
74171;DHT22;62526;50.948;6.590;2023-08-12T12:29:27;27.80;99.90
74171;DHT22;62526;50.948;6.590;2023-08-12T12:31:54;27.70;99.90
74171;DHT22;62526;50.948;6.590;2023-08-12T12:34:21;27.60;99.90
74171;DHT22;62526;50.948;6.590;2023-08-12T12:36:48;27.50;99.90
74171;DHT22;62526;50.948;6.590;2023-08-12T12:39:15;27.70;99.90
74171;DHT22;62526;50.948;6.590;2023-08-12T12:41:42;26.90;99.90
74171;DHT22;62526;50.948;6.590;2023-08-12T12:44:10;25.70;99.90
74171;DHT22;62526;50.948;6.590;2023-08-12T12:46:36;24.40;99.90
74171;DHT22;62526;50.948;6.590;2023-08-12T12:49:04;24.20;99.90
74171;DHT22;62526;50.948;6.590;2023-08-12T12:51:37;24.00;99.90
74171;DHT22;62526;50.948;6.590;2023-08-12T12:54:04;24.50;99.90
74171;DHT22;62526;50.948;6.590;2023-08-12T12:56:31;24.50;99.90
74171;DHT22;62526;50.948;6.590;2023-08-12T12:58:58;24.40;99.90
74171;DHT22;62526;50.948;6.590;2023-08-12T13:01:26;24.50;99.90
74171;DHT22;62526;50.948;6.590;2023-08-12T13:03:52;24.70;99.90
74171;DHT22;62526;50.948;6.590;2023-08-12T13:06:19;24.50;99.90
74171;DHT22;62526;50.948;6.590;2023-08-12T13:08:46;24.00;99.90
74171;DHT22;62526;50.948;6.590;2023-08-12T13:11:13;24.10;99.90
74171;DHT22;62526;50.948;6.590;2023-08-12T13:13:40;24.40;99.90
74171;DHT22;62526;50.948;6.590;2023-08-12T13:16:07;24.50;99.90
74171;DHT22;62526;50.948;6.590;2023-08-12T13:18:35;24.40;99.90
74171;DHT22;62526;50.948;6.590;2023-08-12T13:21:03;24.20;99.90
74171;DHT22;62526;50.948;6.590;2023-08-12T13:23:30;23.90;99.90
74171;DHT22;62526;50.948;6.590;2023-08-12T13:25:57;24.10;99.90
74171;DHT22;62526;50.948;6.590;2023-08-12T13:28:24;24.20;99.90
74171;DHT22;62526;50.948;6.590;2023-08-12T13:30:52;24.50;99.90
74171;DHT22;62526;50.948;6.590;2023-08-12T13:33:18;24.80;99.90
74171;DHT22;62526;50.948;6.590;2023-08-12T13:35:46;25.00;99.90
74171;DHT22;62526;50.948;6.590;2023-08-12T13:38:13;25.00;99.90
74171;DHT22;62526;50.948;6.590;2023-08-12T13:40:40;25.30;99.90
74171;DHT22;62526;50.948;6.590;2023-08-12T13:43:07;25.60;99.90
74171;DHT22;62526;50.948;6.590;2023-08-12T13:45:34;25.50;99.90
74171;DHT22;62526;50.948;6.590;2023-08-12T13:48:01;25.30;99.90
74171;DHT22;62526;50.948;6.590;2023-08-12T13:50:28;25.20;99.90
74171;DHT22;62526;50.948;6.590;2023-08-12T13:52:55;25.20;99.90
74171;DHT22;62526;50.948;6.590;2023-08-12T13:55:22;25.40;99.90
74171;DHT22;62526;50.948;6.590;2023-08-12T13:57:48;25.40;99.90
74171;DHT22;62526;50.948;6.590;2023-08-12T14:00:16;25.30;99.90
74171;DHT22;62526;50.948;6.590;2023-08-12T14:02:42;24.80;99.90
74171;DHT22;62526;50.948;6.590;2023-08-12T14:05:10;25.00;99.90
74171;DHT22;62526;50.948;6.590;2023-08-12T14:07:37;25.40;99.90
74171;DHT22;62526;50.948;6.590;2023-08-12T14:10:05;26.00;99.90
74171;DHT22;62526;50.948;6.590;2023-08-12T14:12:32;26.40;99.90
74171;DHT22;62526;50.948;6.590;2023-08-12T14:15:00;26.50;99.90
74171;DHT22;62526;50.948;6.590;2023-08-12T14:17:26;27.10;99.90
74171;DHT22;62526;50.948;6.590;2023-08-12T14:19:54;28.10;99.90
74171;DHT22;62526;50.948;6.590;2023-08-12T14:22:20;29.30;99.90
74171;DHT22;62526;50.948;6.590;2023-08-12T14:24:48;29.40;99.90
74171;DHT22;62526;50.948;6.590;2023-08-12T14:27:16;29.50;99.90
74171;DHT22;62526;50.948;6.590;2023-08-12T14:29:43;30.10;99.90
74171;DHT22;62526;50.948;6.590;2023-08-12T14:32:10;29.80;99.90
74171;DHT22;62526;50.948;6.590;2023-08-12T14:34:37;29.40;99.90
74171;DHT22;62526;50.948;6.590;2023-08-12T14:37:04;29.20;99.90
74171;DHT22;62526;50.948;6.590;2023-08-12T14:39:31;28.90;99.90
74171;DHT22;62526;50.948;6.590;2023-08-12T14:41:59;28.50;99.90
74171;DHT22;62526;50.948;6.590;2023-08-12T14:44:26;28.50;99.90
74171;DHT22;62526;50.948;6.590;2023-08-12T14:46:53;28.30;99.90
74171;DHT22;62526;50.948;6.590;2023-08-12T14:49:20;27.70;99.90
74171;DHT22;62526;50.948;6.590;2023-08-12T14:51:54;27.40;99.90
74171;DHT22;62526;50.948;6.590;2023-08-12T14:54:20;27.30;99.90
74171;DHT22;62526;50.948;6.590;2023-08-12T14:56:47;27.70;99.90
74171;DHT22;62526;50.948;6.590;2023-08-12T14:59:14;27.60;99.90
74171;DHT22;62526;50.948;6.590;2023-08-12T15:01:42;27.40;99.90
74171;DHT22;62526;50.948;6.590;2023-08-12T15:04:09;28.00;99.90
74171;DHT22;62526;50.948;6.590;2023-08-12T15:06:35;27.80;99.90
74171;DHT22;62526;50.948;6.590;2023-08-12T15:09:02;28.10;99.20
74171;DHT22;62526;50.948;6.590;2023-08-12T15:11:30;27.70;99.90
74171;DHT22;62526;50.948;6.590;2023-08-12T15:13:57;27.40;99.90
74171;DHT22;62526;50.948;6.590;2023-08-12T15:16:25;27.90;99.90
74171;DHT22;62526;50.948;6.590;2023-08-12T15:18:52;28.80;99.90
74171;DHT22;62526;50.948;6.590;2023-08-12T15:21:18;30.00;98.50
74171;DHT22;62526;50.948;6.590;2023-08-12T15:23:45;31.20;96.60
74171;DHT22;62526;50.948;6.590;2023-08-12T15:26:12;31.90;94.10
74171;DHT22;62526;50.948;6.590;2023-08-12T15:28:39;30.50;93.80
74171;DHT22;62526;50.948;6.590;2023-08-12T15:31:06;29.80;94.90